TRA33Z EDDN-EHEH
Flight info
| Callsign | TRA33Z |
|---|---|
| Flight time | 0h 48m |
| Altitude | 24000 |
| Route | SULUS1G SULUS L604 MASEK Z52 ARPEG Z850 EKTOT/N0382F200 Z850 PISAP T883 ROTEK |
| Aircraft | B738/M-SDE2E3FGHIRWXY/LB1 |
Departure
| Time | 2026-05-04 19:08 |
|---|---|
| Airport | Nuremberg Airport (EDDN) |
Arrival
| Time | 2026-05-04 19:56 |
|---|---|
| Airport | Eindhoven Airport (EHEH) |
| Time | Latitude | Longitude | Altitude | Speed | Heading |
|---|---|---|---|---|---|
| 2026-05-04 18:29 | 49.49558 | 11.07396 | 1025 ft | 0 kts | 189° |
| 2026-05-04 18:54 | 49.49565 | 11.07398 | 1025 ft | 4 kts | 187° |
| 2026-05-04 18:54 | 49.49592 | 11.07400 | 1028 ft | 4 kts | 173° |
| 2026-05-04 18:54 | 49.49616 | 11.07389 | 1024 ft | 4 kts | 139° |
| 2026-05-04 18:54 | 49.49626 | 11.07367 | 1028 ft | 0 kts | 98° |
| 2026-05-04 18:58 | 49.49624 | 11.07391 | 1026 ft | 6 kts | 99° |
| 2026-05-04 18:58 | 49.49616 | 11.07473 | 1024 ft | 11 kts | 98° |
| 2026-05-04 18:58 | 49.49600 | 11.07629 | 1029 ft | 16 kts | 99° |
| 2026-05-04 18:59 | 49.49584 | 11.07791 | 1027 ft | 15 kts | 98° |
| 2026-05-04 18:59 | 49.49569 | 11.07945 | 1030 ft | 14 kts | 99° |
| 2026-05-04 18:59 | 49.49554 | 11.08098 | 1031 ft | 14 kts | 98° |
| 2026-05-04 18:59 | 49.49539 | 11.08252 | 1033 ft | 16 kts | 98° |
| 2026-05-04 19:00 | 49.49598 | 11.08368 | 1035 ft | 16 kts | 32° |
| 2026-05-04 19:00 | 49.49608 | 11.08524 | 1038 ft | 15 kts | 99° |
| 2026-05-04 19:00 | 49.49591 | 11.08683 | 1040 ft | 15 kts | 99° |
| 2026-05-04 19:00 | 49.49576 | 11.08835 | 1043 ft | 14 kts | 98° |
| 2026-05-04 19:01 | 49.49562 | 11.08978 | 1045 ft | 13 kts | 98° |
| 2026-05-04 19:01 | 49.49549 | 11.09117 | 1047 ft | 13 kts | 99° |
| 2026-05-04 19:01 | 49.49535 | 11.09252 | 1049 ft | 13 kts | 97° |
| 2026-05-04 19:01 | 49.49531 | 11.09301 | 1051 ft | 0 kts | 96° |
| 2026-05-04 19:05 | 49.49530 | 11.09304 | 1051 ft | 3 kts | 96° |
| 2026-05-04 19:05 | 49.49543 | 11.09380 | 1053 ft | 10 kts | 56° |
| 2026-05-04 19:05 | 49.49589 | 11.09478 | 1056 ft | 16 kts | 54° |
| 2026-05-04 19:05 | 49.49684 | 11.09552 | 1061 ft | 17 kts | 329° |
| 2026-05-04 19:06 | 49.49705 | 11.09459 | 1058 ft | 1 kts | 278° |
| 2026-05-04 19:06 | 49.49704 | 11.09440 | 1057 ft | 3 kts | 265° |
| 2026-05-04 19:06 | 49.49704 | 11.09434 | 1057 ft | 2 kts | 272° |
| 2026-05-04 19:07 | 49.49705 | 11.09427 | 1056 ft | 0 kts | 278° |
| 2026-05-04 19:07 | 49.49706 | 11.09421 | 1056 ft | 0 kts | 280° |
| 2026-05-04 19:07 | 49.49711 | 11.09382 | 1055 ft | 8 kts | 281° |
| 2026-05-04 19:08 | 49.49757 | 11.08950 | 1044 ft | 78 kts | 278° |
| 2026-05-04 19:08 | 49.49874 | 11.07756 | 1033 ft | 144 kts | 278° |
| 2026-05-04 19:08 | 49.50031 | 11.06040 | 1342 ft | 169 kts | 278° |
| 2026-05-04 19:08 | 49.50179 | 11.04200 | 1899 ft | 176 kts | 279° |
| 2026-05-04 19:09 | 49.50311 | 11.02352 | 2593 ft | 174 kts | 279° |
| 2026-05-04 19:09 | 49.50500 | 11.00396 | 3128 ft | 195 kts | 280° |
| 2026-05-04 19:09 | 49.50726 | 10.98169 | 3388 ft | 224 kts | 279° |
| 2026-05-04 19:09 | 49.51108 | 10.95730 | 3679 ft | 243 kts | 297° |
| 2026-05-04 19:10 | 49.52165 | 10.93719 | 4204 ft | 249 kts | 323° |
| 2026-05-04 19:10 | 49.53723 | 10.92583 | 4839 ft | 252 kts | 352° |
| 2026-05-04 19:10 | 49.55481 | 10.92484 | 5527 ft | 255 kts | 1° |
| 2026-05-04 19:10 | 49.57332 | 10.92550 | 5977 ft | 276 kts | 1° |
| 2026-05-04 19:11 | 49.59272 | 10.92358 | 6700 ft | 283 kts | 347° |
| 2026-05-04 19:11 | 49.61185 | 10.91589 | 7524 ft | 287 kts | 342° |
| 2026-05-04 19:11 | 49.63123 | 10.90751 | 8328 ft | 292 kts | 342° |
| 2026-05-04 19:11 | 49.65096 | 10.89908 | 9151 ft | 296 kts | 341° |
| 2026-05-04 19:12 | 49.67107 | 10.89065 | 9962 ft | 301 kts | 341° |
| 2026-05-04 19:12 | 49.71404 | 10.87304 | 10668 ft | 343 kts | 342° |
| 2026-05-04 19:12 | 49.73788 | 10.86344 | 10941 ft | 363 kts | 343° |
| 2026-05-04 19:13 | 49.76259 | 10.85359 | 11550 ft | 371 kts | 343° |
| 2026-05-04 19:13 | 49.78743 | 10.84375 | 12295 ft | 374 kts | 343° |
| 2026-05-04 19:13 | 49.81309 | 10.83358 | 13073 ft | 378 kts | 343° |
| 2026-05-04 19:13 | 49.83871 | 10.82342 | 13806 ft | 382 kts | 343° |
| 2026-05-04 19:14 | 49.86461 | 10.81312 | 14456 ft | 386 kts | 343° |
| 2026-05-04 19:14 | 49.89038 | 10.80286 | 15127 ft | 389 kts | 343° |
| 2026-05-04 19:14 | 49.91675 | 10.79235 | 15814 ft | 392 kts | 343° |
| 2026-05-04 19:14 | 49.94338 | 10.78172 | 16494 ft | 395 kts | 342° |
| 2026-05-04 19:15 | 49.97006 | 10.77106 | 17150 ft | 398 kts | 342° |
| 2026-05-04 19:15 | 49.99702 | 10.76026 | 17797 ft | 402 kts | 342° |
| 2026-05-04 19:15 | 50.02422 | 10.74936 | 18416 ft | 405 kts | 342° |
| 2026-05-04 19:15 | 50.05153 | 10.73715 | 18896 ft | 407 kts | 336° |
| 2026-05-04 19:16 | 50.07653 | 10.71825 | 18946 ft | 404 kts | 324° |
| 2026-05-04 19:16 | 50.09873 | 10.69205 | 18999 ft | 399 kts | 313° |
| 2026-05-04 19:16 | 50.11785 | 10.66080 | 19183 ft | 398 kts | 309° |
| 2026-05-04 19:16 | 50.13673 | 10.62890 | 19435 ft | 404 kts | 310° |
| 2026-05-04 19:17 | 50.15604 | 10.59686 | 19974 ft | 406 kts | 310° |
| 2026-05-04 19:17 | 50.17554 | 10.56483 | 20618 ft | 407 kts | 310° |
| 2026-05-04 19:17 | 50.19496 | 10.53257 | 21183 ft | 409 kts | 310° |
| 2026-05-04 19:17 | 50.21447 | 10.49997 | 21680 ft | 413 kts | 310° |
| 2026-05-04 19:18 | 50.23423 | 10.46716 | 22158 ft | 417 kts | 310° |
| 2026-05-04 19:18 | 50.25428 | 10.43495 | 22650 ft | 420 kts | 311° |
| 2026-05-04 19:18 | 50.27488 | 10.40226 | 23167 ft | 423 kts | 311° |
| 2026-05-04 19:18 | 50.29556 | 10.36944 | 23630 ft | 426 kts | 311° |
| 2026-05-04 19:19 | 50.31647 | 10.33607 | 23934 ft | 428 kts | 311° |
| 2026-05-04 19:19 | 50.33724 | 10.30277 | 23958 ft | 428 kts | 311° |
| 2026-05-04 19:19 | 50.35766 | 10.26899 | 23961 ft | 425 kts | 307° |
| 2026-05-04 19:19 | 50.37627 | 10.23325 | 23971 ft | 422 kts | 305° |
| 2026-05-04 19:20 | 50.39538 | 10.19811 | 23976 ft | 425 kts | 310° |
| 2026-05-04 19:20 | 50.41602 | 10.16550 | 23979 ft | 426 kts | 312° |
| 2026-05-04 19:20 | 50.43717 | 10.13280 | 23991 ft | 427 kts | 311° |
| 2026-05-04 19:20 | 50.45789 | 10.09929 | 23985 ft | 426 kts | 309° |
| 2026-05-04 19:21 | 50.47786 | 10.06485 | 23980 ft | 426 kts | 308° |
| 2026-05-04 19:21 | 50.49778 | 10.03021 | 23972 ft | 426 kts | 308° |
| 2026-05-04 19:21 | 50.51764 | 9.99595 | 23971 ft | 425 kts | 309° |
| 2026-05-04 19:21 | 50.53659 | 9.96027 | 23965 ft | 422 kts | 301° |
| 2026-05-04 19:22 | 50.55145 | 9.92091 | 23973 ft | 416 kts | 291° |
| 2026-05-04 19:22 | 50.56287 | 9.87913 | 23978 ft | 415 kts | 289° |
| 2026-05-04 19:22 | 50.57392 | 9.83710 | 23972 ft | 415 kts | 289° |
| 2026-05-04 19:22 | 50.58480 | 9.79560 | 23991 ft | 415 kts | 289° |
| 2026-05-04 19:23 | 50.59585 | 9.75368 | 23981 ft | 416 kts | 289° |
| 2026-05-04 19:23 | 50.60701 | 9.71156 | 23975 ft | 416 kts | 289° |
| 2026-05-04 19:23 | 50.61820 | 9.66959 | 23977 ft | 416 kts | 289° |
| 2026-05-04 19:23 | 50.62943 | 9.62755 | 23980 ft | 417 kts | 289° |
| 2026-05-04 19:24 | 50.64069 | 9.58543 | 23980 ft | 417 kts | 289° |
| 2026-05-04 19:24 | 50.65193 | 9.54330 | 23967 ft | 417 kts | 289° |
| 2026-05-04 19:24 | 50.66315 | 9.50124 | 23981 ft | 416 kts | 289° |
| 2026-05-04 19:24 | 50.67432 | 9.45923 | 23964 ft | 415 kts | 289° |
| 2026-05-04 19:25 | 50.68547 | 9.41721 | 23963 ft | 414 kts | 289° |
| 2026-05-04 19:25 | 50.69656 | 9.37536 | 23981 ft | 413 kts | 289° |
| 2026-05-04 19:25 | 50.70760 | 9.33362 | 23978 ft | 413 kts | 289° |
| 2026-05-04 19:25 | 50.71865 | 9.29177 | 23976 ft | 413 kts | 289° |
| 2026-05-04 19:26 | 50.72966 | 9.24996 | 23968 ft | 413 kts | 289° |
| 2026-05-04 19:26 | 50.74066 | 9.20815 | 23973 ft | 413 kts | 289° |
| 2026-05-04 19:26 | 50.75165 | 9.16627 | 23974 ft | 413 kts | 289° |
| 2026-05-04 19:26 | 50.75894 | 9.13849 | 23978 ft | 413 kts | 289° |
| 2026-05-04 19:27 | 50.76994 | 9.09646 | 23973 ft | 413 kts | 289° |
| 2026-05-04 19:27 | 50.78090 | 9.05449 | 23970 ft | 414 kts | 289° |
| 2026-05-04 19:27 | 50.79543 | 8.99878 | 23971 ft | 414 kts | 289° |
| 2026-05-04 19:27 | 50.80643 | 8.95656 | 23970 ft | 414 kts | 289° |
| 2026-05-04 19:28 | 50.81381 | 8.92815 | 23978 ft | 414 kts | 289° |
| 2026-05-04 19:28 | 50.82479 | 8.88600 | 23974 ft | 415 kts | 290° |
| 2026-05-04 19:28 | 50.83716 | 8.84469 | 23974 ft | 416 kts | 294° |
| 2026-05-04 19:28 | 50.85071 | 8.80415 | 23981 ft | 417 kts | 295° |
| 2026-05-04 19:29 | 50.86441 | 8.76440 | 23980 ft | 417 kts | 295° |
| 2026-05-04 19:29 | 50.87833 | 8.72397 | 23977 ft | 417 kts | 295° |
| 2026-05-04 19:29 | 50.89207 | 8.68359 | 23975 ft | 417 kts | 295° |
| 2026-05-04 19:29 | 50.90572 | 8.64301 | 23982 ft | 417 kts | 294° |
| 2026-05-04 19:30 | 50.91928 | 8.60233 | 23978 ft | 416 kts | 294° |
| 2026-05-04 19:30 | 50.93276 | 8.56170 | 23995 ft | 416 kts | 294° |
| 2026-05-04 19:30 | 50.94623 | 8.52095 | 23983 ft | 416 kts | 294° |
| 2026-05-04 19:30 | 50.95950 | 8.48076 | 23996 ft | 417 kts | 294° |
| 2026-05-04 19:31 | 50.97295 | 8.43999 | 23991 ft | 417 kts | 294° |
| 2026-05-04 19:31 | 50.98642 | 8.39910 | 23994 ft | 417 kts | 294° |
| 2026-05-04 19:31 | 50.99999 | 8.35830 | 23989 ft | 418 kts | 296° |
| 2026-05-04 19:31 | 51.01701 | 8.32052 | 23989 ft | 423 kts | 308° |
| 2026-05-04 19:32 | 51.03846 | 8.28822 | 23996 ft | 428 kts | 319° |
| 2026-05-04 19:32 | 51.06359 | 8.26229 | 23997 ft | 431 kts | 328° |
| 2026-05-04 19:32 | 51.09006 | 8.23984 | 23994 ft | 431 kts | 329° |
| 2026-05-04 19:32 | 51.11646 | 8.21744 | 23989 ft | 430 kts | 328° |
| 2026-05-04 19:33 | 51.14241 | 8.19388 | 23977 ft | 427 kts | 322° |
| 2026-05-04 19:33 | 51.16399 | 8.16317 | 23988 ft | 419 kts | 306° |
| 2026-05-04 19:33 | 51.17993 | 8.12412 | 24000 ft | 413 kts | 293° |
| 2026-05-04 19:33 | 51.19031 | 8.08238 | 24010 ft | 410 kts | 286° |
| 2026-05-04 19:34 | 51.19989 | 8.03952 | 24001 ft | 411 kts | 286° |
| 2026-05-04 19:34 | 51.20961 | 7.99650 | 23998 ft | 411 kts | 287° |
| 2026-05-04 19:34 | 51.21938 | 7.95363 | 23999 ft | 412 kts | 287° |
| 2026-05-04 19:34 | 51.22928 | 7.91052 | 23997 ft | 413 kts | 287° |
| 2026-05-04 19:35 | 51.23919 | 7.86753 | 23991 ft | 414 kts | 287° |
| 2026-05-04 19:35 | 51.24914 | 7.82443 | 23988 ft | 414 kts | 287° |
| 2026-05-04 19:35 | 51.25909 | 7.78129 | 23982 ft | 414 kts | 287° |
| 2026-05-04 19:35 | 51.26905 | 7.73809 | 23990 ft | 414 kts | 287° |
| 2026-05-04 19:36 | 51.27898 | 7.69490 | 23985 ft | 414 kts | 287° |
| 2026-05-04 19:36 | 51.28889 | 7.65171 | 23977 ft | 414 kts | 287° |
| 2026-05-04 19:36 | 51.29879 | 7.60846 | 23995 ft | 413 kts | 287° |
| 2026-05-04 19:36 | 51.30853 | 7.56583 | 23995 ft | 414 kts | 287° |
| 2026-05-04 19:37 | 51.31839 | 7.52259 | 23988 ft | 414 kts | 287° |
| 2026-05-04 19:37 | 51.32823 | 7.47933 | 23984 ft | 414 kts | 287° |
| 2026-05-04 19:37 | 51.33809 | 7.43591 | 23788 ft | 416 kts | 287° |
| 2026-05-04 19:37 | 51.34793 | 7.39250 | 23525 ft | 413 kts | 287° |
| 2026-05-04 19:38 | 51.35769 | 7.34934 | 23134 ft | 412 kts | 287° |
| 2026-05-04 19:38 | 51.36739 | 7.30640 | 22671 ft | 409 kts | 287° |
| 2026-05-04 19:38 | 51.37701 | 7.26369 | 22213 ft | 406 kts | 287° |
| 2026-05-04 19:38 | 51.38656 | 7.22122 | 21780 ft | 404 kts | 287° |
| 2026-05-04 19:39 | 51.39596 | 7.17943 | 21678 ft | 389 kts | 287° |
| 2026-05-04 19:39 | 51.40516 | 7.13730 | 20817 ft | 402 kts | 287° |
| 2026-05-04 19:39 | 51.41435 | 7.09553 | 20472 ft | 394 kts | 287° |
| 2026-05-04 19:39 | 51.42350 | 7.05471 | 20017 ft | 385 kts | 287° |
| 2026-05-04 19:40 | 51.43248 | 7.01483 | 19578 ft | 376 kts | 287° |
| 2026-05-04 19:40 | 51.44123 | 6.97584 | 19216 ft | 367 kts | 287° |
| 2026-05-04 19:40 | 51.44974 | 6.93771 | 18874 ft | 360 kts | 287° |
| 2026-05-04 19:40 | 51.45798 | 6.90061 | 18557 ft | 355 kts | 287° |
| 2026-05-04 19:41 | 51.46627 | 6.86309 | 18238 ft | 360 kts | 287° |
| 2026-05-04 19:41 | 51.47468 | 6.82490 | 17926 ft | 364 kts | 287° |
| 2026-05-04 19:41 | 51.48309 | 6.78667 | 17628 ft | 362 kts | 287° |
| 2026-05-04 19:41 | 51.49143 | 6.74874 | 17332 ft | 359 kts | 287° |
| 2026-05-04 19:42 | 51.49970 | 6.71103 | 17046 ft | 357 kts | 287° |
| 2026-05-04 19:42 | 51.50792 | 6.67347 | 16760 ft | 355 kts | 287° |
| 2026-05-04 19:42 | 51.51609 | 6.63609 | 16478 ft | 354 kts | 288° |
| 2026-05-04 19:42 | 51.52421 | 6.59883 | 16199 ft | 353 kts | 288° |
| 2026-05-04 19:43 | 51.53231 | 6.56165 | 15921 ft | 352 kts | 288° |
| 2026-05-04 19:43 | 51.54038 | 6.52449 | 15645 ft | 352 kts | 288° |
| 2026-05-04 19:43 | 51.54852 | 6.48696 | 15136 ft | 357 kts | 288° |
| 2026-05-04 19:43 | 51.55662 | 6.44954 | 14726 ft | 353 kts | 288° |
| 2026-05-04 19:44 | 51.56469 | 6.41226 | 14236 ft | 351 kts | 288° |
| 2026-05-04 19:44 | 51.57264 | 6.37541 | 13738 ft | 347 kts | 288° |
| 2026-05-04 19:44 | 51.58052 | 6.33882 | 13170 ft | 343 kts | 288° |
| 2026-05-04 19:44 | 51.58827 | 6.30277 | 12631 ft | 340 kts | 288° |
| 2026-05-04 19:45 | 51.59585 | 6.26744 | 12093 ft | 337 kts | 289° |
| 2026-05-04 19:45 | 51.60345 | 6.23203 | 11580 ft | 333 kts | 290° |
| 2026-05-04 19:45 | 51.61089 | 6.19729 | 11324 ft | 322 kts | 290° |
| 2026-05-04 19:45 | 51.61616 | 6.16296 | 11150 ft | 310 kts | 272° |
| 2026-05-04 19:46 | 51.61542 | 6.12929 | 11036 ft | 292 kts | 267° |
| 2026-05-04 19:46 | 51.61418 | 6.09727 | 10759 ft | 284 kts | 267° |
| 2026-05-04 19:46 | 51.61299 | 6.06565 | 10315 ft | 283 kts | 267° |
| 2026-05-04 19:46 | 51.61187 | 6.03409 | 9868 ft | 281 kts | 268° |
| 2026-05-04 19:47 | 51.61081 | 6.00279 | 9405 ft | 279 kts | 268° |
| 2026-05-04 19:47 | 51.60978 | 5.97163 | 8945 ft | 277 kts | 268° |
| 2026-05-04 19:47 | 51.61111 | 5.94133 | 8466 ft | 274 kts | 288° |
| 2026-05-04 19:47 | 51.61850 | 5.91332 | 8051 ft | 270 kts | 298° |
| 2026-05-04 19:48 | 51.62783 | 5.88722 | 7578 ft | 269 kts | 302° |
| 2026-05-04 19:48 | 51.63764 | 5.86171 | 7152 ft | 267 kts | 302° |
| 2026-05-04 19:48 | 51.64746 | 5.83643 | 6739 ft | 266 kts | 302° |
| 2026-05-04 19:48 | 51.65728 | 5.81128 | 6307 ft | 264 kts | 302° |
| 2026-05-04 19:49 | 51.66703 | 5.78639 | 5915 ft | 260 kts | 303° |
| 2026-05-04 19:49 | 51.67661 | 5.76176 | 5481 ft | 258 kts | 303° |
| 2026-05-04 19:49 | 51.68615 | 5.73716 | 5040 ft | 258 kts | 302° |
| 2026-05-04 19:49 | 51.69560 | 5.71273 | 4590 ft | 257 kts | 302° |
| 2026-05-04 19:50 | 51.70398 | 5.68757 | 4264 ft | 251 kts | 287° |
| 2026-05-04 19:50 | 51.70471 | 5.65984 | 4039 ft | 247 kts | 256° |
| 2026-05-04 19:50 | 51.69743 | 5.63618 | 3955 ft | 229 kts | 230° |
| 2026-05-04 19:50 | 51.68570 | 5.62027 | 3824 ft | 214 kts | 209° |
| 2026-05-04 19:51 | 51.67317 | 5.60902 | 3602 ft | 206 kts | 208° |
| 2026-05-04 19:51 | 51.66077 | 5.59771 | 3342 ft | 203 kts | 208° |
| 2026-05-04 19:51 | 51.64851 | 5.58652 | 3097 ft | 201 kts | 208° |
| 2026-05-04 19:51 | 51.63634 | 5.57541 | 2869 ft | 201 kts | 208° |
| 2026-05-04 19:52 | 51.62420 | 5.56433 | 2711 ft | 197 kts | 208° |
| 2026-05-04 19:52 | 51.61242 | 5.55358 | 2718 ft | 195 kts | 208° |
| 2026-05-04 19:52 | 51.60048 | 5.54267 | 2735 ft | 199 kts | 209° |
| 2026-05-04 19:52 | 51.58881 | 5.53026 | 2740 ft | 201 kts | 214° |
| 2026-05-04 19:53 | 51.57743 | 5.51722 | 2731 ft | 200 kts | 214° |
| 2026-05-04 19:53 | 51.56614 | 5.50453 | 2533 ft | 199 kts | 214° |
| 2026-05-04 19:53 | 51.55493 | 5.49198 | 2362 ft | 189 kts | 213° |
| 2026-05-04 19:53 | 51.54439 | 5.48021 | 2111 ft | 183 kts | 214° |
| 2026-05-04 19:54 | 51.53439 | 5.46898 | 1903 ft | 169 kts | 214° |
| 2026-05-04 19:54 | 51.52504 | 5.45852 | 1678 ft | 161 kts | 214° |
| 2026-05-04 19:54 | 51.51586 | 5.44834 | 1406 ft | 161 kts | 214° |
| 2026-05-04 19:54 | 51.50670 | 5.43811 | 1244 ft | 159 kts | 214° |
| 2026-05-04 19:55 | 51.49768 | 5.42827 | 1045 ft | 155 kts | 214° |
| 2026-05-04 19:55 | 51.48890 | 5.41832 | 879 ft | 154 kts | 216° |
| 2026-05-04 19:55 | 51.48010 | 5.40818 | 648 ft | 157 kts | 214° |
| 2026-05-04 19:55 | 51.47109 | 5.39822 | 403 ft | 158 kts | 216° |
| 2026-05-04 19:56 | 51.46213 | 5.38793 | 198 ft | 156 kts | 215° |
| 2026-05-04 19:56 | 51.45341 | 5.37832 | 80 ft | 143 kts | 215° |
| 2026-05-04 19:56 | 51.44612 | 5.37003 | 66 ft | 96 kts | 216° |
| 2026-05-04 19:56 | 51.44272 | 5.36627 | 70 ft | 31 kts | 212° |
| 2026-05-04 19:57 | 51.44129 | 5.36453 | 70 ft | 15 kts | 237° |
| 2026-05-04 19:57 | 51.44146 | 5.36320 | 69 ft | 0 kts | 304° |
| 2026-05-04 19:57 | 51.44150 | 5.36312 | 68 ft | 0 kts | 304° |
| 2026-05-04 19:58 | 51.44151 | 5.36310 | 69 ft | 1 kts | 304° |
| 2026-05-04 19:58 | 51.44187 | 5.36269 | 71 ft | 11 kts | 348° |
| 2026-05-04 19:58 | 51.44231 | 5.36296 | 67 ft | 0 kts | 30° |
| 2026-05-04 19:59 | 51.44231 | 5.36297 | 67 ft | 1 kts | 30° |
| 2026-05-04 19:59 | 51.44261 | 5.36332 | 64 ft | 8 kts | 35° |
| 2026-05-04 20:00 | 51.44310 | 5.36380 | 70 ft | 8 kts | 30° |
| 2026-05-04 20:00 | 51.44362 | 5.36437 | 67 ft | 10 kts | 35° |
| 2026-05-04 20:00 | 51.44438 | 5.36527 | 71 ft | 21 kts | 36° |
| 2026-05-04 20:00 | 51.44581 | 5.36689 | 69 ft | 26 kts | 35° |
| 2026-05-04 20:01 | 51.44725 | 5.36850 | 66 ft | 24 kts | 34° |
| 2026-05-04 20:01 | 51.44859 | 5.37000 | 71 ft | 23 kts | 35° |
| 2026-05-04 20:01 | 51.44988 | 5.37145 | 74 ft | 23 kts | 34° |
| 2026-05-04 20:01 | 51.45131 | 5.37304 | 66 ft | 26 kts | 34° |
| 2026-05-04 20:02 | 51.45292 | 5.37484 | 72 ft | 30 kts | 34° |
| 2026-05-04 20:02 | 51.45462 | 5.37672 | 73 ft | 24 kts | 35° |
| 2026-05-04 20:02 | 51.45505 | 5.37721 | 73 ft | 6 kts | 37° |
| 2026-05-04 20:02 | 51.45588 | 5.37817 | 69 ft | 20 kts | 36° |
| 2026-05-04 20:03 | 51.45649 | 5.37884 | 74 ft | 12 kts | 35° |
| 2026-05-04 20:03 | 51.45764 | 5.38013 | 70 ft | 29 kts | 36° |
| 2026-05-04 20:03 | 51.45951 | 5.38222 | 74 ft | 22 kts | 35° |
| 2026-05-04 20:03 | 51.45993 | 5.38320 | 72 ft | 11 kts | 108° |
| 2026-05-04 20:04 | 51.45951 | 5.38420 | 74 ft | 11 kts | 125° |
| 2026-05-04 20:04 | 51.45892 | 5.38553 | 71 ft | 16 kts | 126° |
| 2026-05-04 20:04 | 51.45833 | 5.38687 | 65 ft | 10 kts | 125° |
| 2026-05-04 20:04 | 51.45791 | 5.38779 | 74 ft | 10 kts | 135° |
| 2026-05-04 20:05 | 51.45739 | 5.38850 | 70 ft | 10 kts | 126° |
| 2026-05-04 20:05 | 51.45719 | 5.38897 | 74 ft | 3 kts | 125° |
| 2026-05-04 20:05 | 51.45717 | 5.38901 | 74 ft | 0 kts | 125° |